Messwerte Port Isabel

Temperatur

Temperatur
°C
1575954000 23.00 23.00 23
1575957600 0.00 0.00 24
1575961200 1.00 1.00 23
1575964800 2.00 2.00 24
1575968400 3.00 3.00 23
1575972000 4.00 4.00 22
1575975600 5.00 5.00 21
1575979200 6.00 6.00 22
1575982800 7.00 7.00 22
1575986400 8.00 8.00 22
1575990000 9.00 9.00 24
1575993600 10.00 10.00
1575997200 11.00 11.00 16
1576000800 12.00 12.00 15
1576004400 13.00 13.00 13
1576008000 14.00 14.00 13
1576011600 15.00 15.00
1576015200 16.00 16.00 14
1576018800 17.00 17.00 16
1576022400 18.00 18.00 13
1576026000 19.00 19.00 13
1576029600 20.00 20.00 13
1576033200 21.00 21.00 12
1576036800 22.00 22.00 12

Aktuellste Messwerte

Wettercharakter
Wetter: bedeckt
Temperatur
11 °C
Feuchtigkeit
85 %
Wind
35 km/hWindrichtung: Nordwest
Luftdruck
1027 hPa
Messzeit: 10. Dezember 2019, 23.00Datenquelle: METAR

Weitere Messstationen in der Nähe

Messstation Temperatur Entfernung
Brownsville 11 °C 29 km
Harlingen 11 °C 31 km
Matamoros - 48 km
Edinburg 11 °C 83 km
McAllen 12 °C 88 km
Reynosa - 89 km
Falfurrias 11 °C 139 km

Wind

Windrichtung Böen Mittelwind
° km/h km/h
1575954000 23.00 22.00 - 23.00 170° 20
1575957600 0.00 23.00 - 0.00 180° 35 20
1575961200 1.00 0.00 - 1.00 180° 15
1575964800 2.00 1.00 - 2.00 200° 15
1575968400 3.00 2.00 - 3.00 180° 15
1575972000 4.00 3.00 - 4.00 0
1575975600 5.00 4.00 - 5.00 130° 5
1575979200 6.00 5.00 - 6.00 170° 5
1575982800 7.00 6.00 - 7.00 130° 5
1575986400 8.00 7.00 - 8.00 150° 10
1575990000 9.00 8.00 - 9.00 0
1575993600 10.00 9.00 - 10.00
1575997200 11.00 10.00 - 11.00 330° 45 35
1576000800 12.00 11.00 - 12.00 330° 50 40
1576004400 13.00 12.00 - 13.00 330° 55 45
1576008000 14.00 13.00 - 14.00 330° 55 40
1576011600 15.00 14.00 - 15.00
1576015200 16.00 15.00 - 16.00 360° 60 40
1576018800 17.00 16.00 - 17.00 360° 50 35
1576022400 18.00 17.00 - 18.00 330° 45 35
1576026000 19.00 18.00 - 19.00 340° 45 40
1576029600 20.00 19.00 - 20.00 340° 35
1576033200 21.00 20.00 - 21.00 330° 45 35
1576036800 22.00 21.00 - 22.00 330° 45 35

Ihre Wetterstation

Fehlt Ihre Wetterstation auf unserem Portal?

Schreiben Sie an network@meteonews.ch

Klima

Wann ist es am wärmsten? Wann regnet es am wenigsten? Unsere Klimadaten geben Auskunft.